sensor_id;sensor_type;location;lat;lon;timestamp;temperature;humidity
61398;DHT22;47267;48.130;-2.040;2023-12-22T00:01:12;20.30;53.30
61398;DHT22;47267;48.130;-2.040;2023-12-22T00:03:41;20.30;53.30
61398;DHT22;47267;48.130;-2.040;2023-12-22T00:06:07;20.30;53.30
61398;DHT22;47267;48.130;-2.040;2023-12-22T00:08:32;20.30;53.30
61398;DHT22;47267;48.130;-2.040;2023-12-22T00:10:58;20.30;53.30
61398;DHT22;47267;48.130;-2.040;2023-12-22T00:13:24;20.30;53.30
61398;DHT22;47267;48.130;-2.040;2023-12-22T00:15:50;20.30;53.30
61398;DHT22;47267;48.130;-2.040;2023-12-22T00:18:16;20.30;53.30
61398;DHT22;47267;48.130;-2.040;2023-12-22T00:20:41;20.40;53.30
61398;DHT22;47267;48.130;-2.040;2023-12-22T00:23:07;20.30;53.30
61398;DHT22;47267;48.130;-2.040;2023-12-22T00:25:32;20.30;53.30
61398;DHT22;47267;48.130;-2.040;2023-12-22T00:27:58;20.30;53.30
61398;DHT22;47267;48.130;-2.040;2023-12-22T00:30:24;20.30;53.30
61398;DHT22;47267;48.130;-2.040;2023-12-22T00:32:50;20.30;53.30
61398;DHT22;47267;48.130;-2.040;2023-12-22T00:35:15;20.30;53.30
61398;DHT22;47267;48.130;-2.040;2023-12-22T00:37:41;20.30;53.30
61398;DHT22;47267;48.130;-2.040;2023-12-22T00:40:07;20.30;53.30
61398;DHT22;47267;48.130;-2.040;2023-12-22T00:42:34;20.30;53.30
61398;DHT22;47267;48.130;-2.040;2023-12-22T00:45:00;20.30;53.30
61398;DHT22;47267;48.130;-2.040;2023-12-22T00:47:26;20.30;53.30
61398;DHT22;47267;48.130;-2.040;2023-12-22T00:49:52;20.30;53.30
61398;DHT22;47267;48.130;-2.040;2023-12-22T00:52:17;20.30;53.30
61398;DHT22;47267;48.130;-2.040;2023-12-22T00:54:43;20.30;53.30
61398;DHT22;47267;48.130;-2.040;2023-12-22T00:57:09;20.30;53.30
61398;DHT22;47267;48.130;-2.040;2023-12-22T00:59:35;20.30;53.30
61398;DHT22;47267;48.130;-2.040;2023-12-22T01:02:00;20.30;53.30
61398;DHT22;47267;48.130;-2.040;2023-12-22T01:04:26;20.30;53.30
61398;DHT22;47267;48.130;-2.040;2023-12-22T01:06:52;20.30;53.30
61398;DHT22;47267;48.130;-2.040;2023-12-22T01:09:18;20.30;53.30
61398;DHT22;47267;48.130;-2.040;2023-12-22T01:11:45;20.30;53.30
61398;DHT22;47267;48.130;-2.040;2023-12-22T01:14:11;20.30;53.30
61398;DHT22;47267;48.130;-2.040;2023-12-22T01:16:39;20.30;53.90
61398;DHT22;47267;48.130;-2.040;2023-12-22T01:19:04;20.30;53.30
61398;DHT22;47267;48.130;-2.040;2023-12-22T01:21:30;20.30;53.30
61398;DHT22;47267;48.130;-2.040;2023-12-22T01:23:56;20.30;53.30
61398;DHT22;47267;48.130;-2.040;2023-12-22T01:26:24;20.30;53.30
61398;DHT22;47267;48.130;-2.040;2023-12-22T01:28:50;20.30;53.30
61398;DHT22;47267;48.130;-2.040;2023-12-22T01:31:15;20.30;53.30
61398;DHT22;47267;48.130;-2.040;2023-12-22T01:33:41;20.30;53.30
61398;DHT22;47267;48.130;-2.040;2023-12-22T01:36:07;20.30;53.30
61398;DHT22;47267;48.130;-2.040;2023-12-22T01:38:33;20.30;53.30
61398;DHT22;47267;48.130;-2.040;2023-12-22T01:40:58;20.30;53.30
61398;DHT22;47267;48.130;-2.040;2023-12-22T01:43:24;20.30;53.30
61398;DHT22;47267;48.130;-2.040;2023-12-22T01:45:56;20.30;53.30
61398;DHT22;47267;48.130;-2.040;2023-12-22T01:48:25;20.30;53.30
61398;DHT22;47267;48.130;-2.040;2023-12-22T01:50:53;20.30;53.30
61398;DHT22;47267;48.130;-2.040;2023-12-22T01:53:20;20.20;53.20
61398;DHT22;47267;48.130;-2.040;2023-12-22T01:55:50;20.20;53.20
61398;DHT22;47267;48.130;-2.040;2023-12-22T01:58:17;20.20;53.20
61398;DHT22;47267;48.130;-2.040;2023-12-22T02:00:43;20.30;53.30
61398;DHT22;47267;48.130;-2.040;2023-12-22T02:03:09;20.20;53.20
61398;DHT22;47267;48.130;-2.040;2023-12-22T02:05:35;20.30;53.30
61398;DHT22;47267;48.130;-2.040;2023-12-22T02:08:01;20.20;53.30
61398;DHT22;47267;48.130;-2.040;2023-12-22T02:10:27;20.20;53.20
61398;DHT22;47267;48.130;-2.040;2023-12-22T02:12:53;20.20;53.20
61398;DHT22;47267;48.130;-2.040;2023-12-22T02:15:18;20.30;53.30
61398;DHT22;47267;48.130;-2.040;2023-12-22T02:20:19;20.20;53.20
61398;DHT22;47267;48.130;-2.040;2023-12-22T02:22:51;20.20;53.20
61398;DHT22;47267;48.130;-2.040;2023-12-22T02:25:18;20.20;53.20
61398;DHT22;47267;48.130;-2.040;2023-12-22T02:27:53;20.20;53.20
61398;DHT22;47267;48.130;-2.040;2023-12-22T02:30:26;20.30;53.30
61398;DHT22;47267;48.130;-2.040;2023-12-22T02:33:03;20.20;53.20
61398;DHT22;47267;48.130;-2.040;2023-12-22T02:35:32;20.20;53.30
61398;DHT22;47267;48.130;-2.040;2023-12-22T02:37:59;20.30;53.30
61398;DHT22;47267;48.130;-2.040;2023-12-22T02:40:26;20.20;53.20
61398;DHT22;47267;48.130;-2.040;2023-12-22T02:42:53;20.30;53.30
61398;DHT22;47267;48.130;-2.040;2023-12-22T02:45:19;20.20;53.20
61398;DHT22;47267;48.130;-2.040;2023-12-22T02:47:46;20.20;53.20
61398;DHT22;47267;48.130;-2.040;2023-12-22T02:50:13;20.20;53.20
61398;DHT22;47267;48.130;-2.040;2023-12-22T02:52:40;20.20;53.20
61398;DHT22;47267;48.130;-2.040;2023-12-22T02:55:06;20.20;53.20
61398;DHT22;47267;48.130;-2.040;2023-12-22T02:57:32;20.20;53.20
61398;DHT22;47267;48.130;-2.040;2023-12-22T02:59:58;20.20;53.30
61398;DHT22;47267;48.130;-2.040;2023-12-22T03:02:24;20.20;53.20
61398;DHT22;47267;48.130;-2.040;2023-12-22T03:04:50;20.20;53.20
61398;DHT22;47267;48.130;-2.040;2023-12-22T03:07:16;20.20;53.20
61398;DHT22;47267;48.130;-2.040;2023-12-22T03:09:42;20.20;53.20
61398;DHT22;47267;48.130;-2.040;2023-12-22T03:12:09;20.20;53.20
61398;DHT22;47267;48.130;-2.040;2023-12-22T03:14:35;20.20;53.20
61398;DHT22;47267;48.130;-2.040;2023-12-22T03:17:02;20.20;53.20
61398;DHT22;47267;48.130;-2.040;2023-12-22T03:19:28;20.20;53.20
61398;DHT22;47267;48.130;-2.040;2023-12-22T03:21:54;20.20;53.20
61398;DHT22;47267;48.130;-2.040;2023-12-22T03:24:20;20.20;53.20
61398;DHT22;47267;48.130;-2.040;2023-12-22T03:26:50;20.20;53.20
61398;DHT22;47267;48.130;-2.040;2023-12-22T03:29:16;20.20;53.20
61398;DHT22;47267;48.130;-2.040;2023-12-22T03:31:43;20.20;53.20
61398;DHT22;47267;48.130;-2.040;2023-12-22T03:34:09;20.20;53.20
61398;DHT22;47267;48.130;-2.040;2023-12-22T03:36:34;20.20;53.80
61398;DHT22;47267;48.130;-2.040;2023-12-22T03:39:00;20.20;53.20
61398;DHT22;47267;48.130;-2.040;2023-12-22T03:41:26;20.20;53.20
61398;DHT22;47267;48.130;-2.040;2023-12-22T03:43:51;20.20;53.20
61398;DHT22;47267;48.130;-2.040;2023-12-22T03:46:17;20.20;53.20
61398;DHT22;47267;48.130;-2.040;2023-12-22T03:48:44;20.20;53.20
61398;DHT22;47267;48.130;-2.040;2023-12-22T03:51:09;20.20;53.20
61398;DHT22;47267;48.130;-2.040;2023-12-22T03:53:37;20.20;53.20
61398;DHT22;47267;48.130;-2.040;2023-12-22T03:56:03;20.10;53.70
61398;DHT22;47267;48.130;-2.040;2023-12-22T03:58:28;20.20;53.20
61398;DHT22;47267;48.130;-2.040;2023-12-22T04:00:56;20.20;53.20
61398;DHT22;47267;48.130;-2.040;2023-12-22T04:03:21;20.20;53.20
61398;DHT22;47267;48.130;-2.040;2023-12-22T04:05:47;20.10;53.20
61398;DHT22;47267;48.130;-2.040;2023-12-22T04:08:13;20.20;53.20
61398;DHT22;47267;48.130;-2.040;2023-12-22T04:10:38;20.20;53.20
61398;DHT22;47267;48.130;-2.040;2023-12-22T04:13:04;20.10;53.20
61398;DHT22;47267;48.130;-2.040;2023-12-22T04:15:30;20.10;53.20
61398;DHT22;47267;48.130;-2.040;2023-12-22T04:17:55;20.20;53.20
61398;DHT22;47267;48.130;-2.040;2023-12-22T04:20:21;20.10;53.20
61398;DHT22;47267;48.130;-2.040;2023-12-22T04:22:47;20.20;53.20
61398;DHT22;47267;48.130;-2.040;2023-12-22T04:25:12;20.20;53.20
61398;DHT22;47267;48.130;-2.040;2023-12-22T04:27:38;20.10;53.20
61398;DHT22;47267;48.130;-2.040;2023-12-22T04:30:04;20.10;53.20
61398;DHT22;47267;48.130;-2.040;2023-12-22T04:32:30;20.20;53.20
61398;DHT22;47267;48.130;-2.040;2023-12-22T04:34:55;20.10;53.20
61398;DHT22;47267;48.130;-2.040;2023-12-22T04:37:21;20.20;53.20
61398;DHT22;47267;48.130;-2.040;2023-12-22T04:39:47;20.10;53.20
61398;DHT22;47267;48.130;-2.040;2023-12-22T04:42:12;20.10;53.20
61398;DHT22;47267;48.130;-2.040;2023-12-22T04:44:38;20.10;53.20
61398;DHT22;47267;48.130;-2.040;2023-12-22T04:47:04;20.10;53.20
61398;DHT22;47267;48.130;-2.040;2023-12-22T04:49:29;20.10;53.20
61398;DHT22;47267;48.130;-2.040;2023-12-22T04:51:55;20.10;53.20
61398;DHT22;47267;48.130;-2.040;2023-12-22T04:54:21;20.10;53.20
61398;DHT22;47267;48.130;-2.040;2023-12-22T04:56:46;20.10;53.20
61398;DHT22;47267;48.130;-2.040;2023-12-22T04:59:12;20.10;53.20
61398;DHT22;47267;48.130;-2.040;2023-12-22T05:01:37;20.10;53.20
61398;DHT22;47267;48.130;-2.040;2023-12-22T05:04:03;20.10;53.20
61398;DHT22;47267;48.130;-2.040;2023-12-22T05:06:29;20.10;53.20
61398;DHT22;47267;48.130;-2.040;2023-12-22T05:08:55;20.10;53.20
61398;DHT22;47267;48.130;-2.040;2023-12-22T05:11:22;20.10;53.10
61398;DHT22;47267;48.130;-2.040;2023-12-22T05:13:47;20.10;53.20
61398;DHT22;47267;48.130;-2.040;2023-12-22T05:16:13;20.10;53.20
61398;DHT22;47267;48.130;-2.040;2023-12-22T05:18:39;20.10;53.20
61398;DHT22;47267;48.130;-2.040;2023-12-22T05:21:05;20.10;53.10
61398;DHT22;47267;48.130;-2.040;2023-12-22T05:23:31;20.10;53.20
61398;DHT22;47267;48.130;-2.040;2023-12-22T05:25:57;20.10;53.20
61398;DHT22;47267;48.130;-2.040;2023-12-22T05:28:23;20.10;53.20
61398;DHT22;47267;48.130;-2.040;2023-12-22T05:30:49;20.10;53.20
61398;DHT22;47267;48.130;-2.040;2023-12-22T05:33:14;20.10;53.20
61398;DHT22;47267;48.130;-2.040;2023-12-22T05:35:40;20.10;53.20
61398;DHT22;47267;48.130;-2.040;2023-12-22T05:38:06;20.10;53.20
61398;DHT22;47267;48.130;-2.040;2023-12-22T05:40:32;20.10;53.20
61398;DHT22;47267;48.130;-2.040;2023-12-22T05:42:57;20.10;53.20
61398;DHT22;47267;48.130;-2.040;2023-12-22T05:45:23;20.10;53.10
61398;DHT22;47267;48.130;-2.040;2023-12-22T05:47:50;20.10;53.20
61398;DHT22;47267;48.130;-2.040;2023-12-22T05:50:16;20.10;53.80
61398;DHT22;47267;48.130;-2.040;2023-12-22T05:52:42;20.10;53.20
61398;DHT22;47267;48.130;-2.040;2023-12-22T05:55:10;20.10;53.20
61398;DHT22;47267;48.130;-2.040;2023-12-22T05:57:36;20.10;53.20
61398;DHT22;47267;48.130;-2.040;2023-12-22T06:00:02;20.10;53.10
61398;DHT22;47267;48.130;-2.040;2023-12-22T06:02:32;20.10;53.20
61398;DHT22;47267;48.130;-2.040;2023-12-22T06:04:58;20.10;53.20
61398;DHT22;47267;48.130;-2.040;2023-12-22T06:07:24;20.10;53.20
61398;DHT22;47267;48.130;-2.040;2023-12-22T06:09:50;20.10;53.20
61398;DHT22;47267;48.130;-2.040;2023-12-22T06:12:15;20.10;53.10
61398;DHT22;47267;48.130;-2.040;2023-12-22T06:14:41;20.10;53.20
61398;DHT22;47267;48.130;-2.040;2023-12-22T06:17:07;20.10;53.20
61398;DHT22;47267;48.130;-2.040;2023-12-22T06:19:32;20.10;53.20
61398;DHT22;47267;48.130;-2.040;2023-12-22T06:21:58;20.10;53.20
61398;DHT22;47267;48.130;-2.040;2023-12-22T06:24:25;20.10;53.20
61398;DHT22;47267;48.130;-2.040;2023-12-22T06:26:51;20.10;53.20
61398;DHT22;47267;48.130;-2.040;2023-12-22T06:29:17;20.10;53.20
61398;DHT22;47267;48.130;-2.040;2023-12-22T06:31:43;20.10;53.20
61398;DHT22;47267;48.130;-2.040;2023-12-22T06:34:08;20.10;53.20
61398;DHT22;47267;48.130;-2.040;2023-12-22T06:36:34;20.10;53.20
61398;DHT22;47267;48.130;-2.040;2023-12-22T06:39:00;20.00;53.10
61398;DHT22;47267;48.130;-2.040;2023-12-22T06:41:27;20.10;53.20
61398;DHT22;47267;48.130;-2.040;2023-12-22T06:43:53;20.00;53.10
61398;DHT22;47267;48.130;-2.040;2023-12-22T06:46:20;20.10;53.20
61398;DHT22;47267;48.130;-2.040;2023-12-22T06:48:47;20.10;53.20
61398;DHT22;47267;48.130;-2.040;2023-12-22T06:53:49;20.10;53.20
61398;DHT22;47267;48.130;-2.040;2023-12-22T06:56:22;20.00;53.10
61398;DHT22;47267;48.130;-2.040;2023-12-22T06:58:49;20.10;53.20
61398;DHT22;47267;48.130;-2.040;2023-12-22T07:03:48;20.10;53.20
61398;DHT22;47267;48.130;-2.040;2023-12-22T07:06:19;20.00;53.10
61398;DHT22;47267;48.130;-2.040;2023-12-22T07:11:40;20.10;53.20
61398;DHT22;47267;48.130;-2.040;2023-12-22T07:14:06;20.10;53.20
61398;DHT22;47267;48.130;-2.040;2023-12-22T07:16:33;20.10;53.80
61398;DHT22;47267;48.130;-2.040;2023-12-22T07:18:59;20.10;53.30
61398;DHT22;47267;48.130;-2.040;2023-12-22T07:21:27;20.10;53.30
61398;DHT22;47267;48.130;-2.040;2023-12-22T07:23:53;20.00;53.30
61398;DHT22;47267;48.130;-2.040;2023-12-22T07:26:18;20.00;53.30
61398;DHT22;47267;48.130;-2.040;2023-12-22T07:28:44;20.10;53.40
61398;DHT22;47267;48.130;-2.040;2023-12-22T07:31:10;20.10;53.30
61398;DHT22;47267;48.130;-2.040;2023-12-22T07:33:37;20.00;53.30
61398;DHT22;47267;48.130;-2.040;2023-12-22T07:36:04;20.10;53.40
61398;DHT22;47267;48.130;-2.040;2023-12-22T07:38:29;20.10;53.40
61398;DHT22;47267;48.130;-2.040;2023-12-22T07:40:55;20.10;53.50
61398;DHT22;47267;48.130;-2.040;2023-12-22T07:43:21;20.10;53.50
61398;DHT22;47267;48.130;-2.040;2023-12-22T07:45:46;20.10;53.50
61398;DHT22;47267;48.130;-2.040;2023-12-22T07:48:13;20.10;53.40
61398;DHT22;47267;48.130;-2.040;2023-12-22T07:50:39;20.10;53.40
61398;DHT22;47267;48.130;-2.040;2023-12-22T07:53:05;20.10;53.40
61398;DHT22;47267;48.130;-2.040;2023-12-22T07:55:30;20.10;53.50
61398;DHT22;47267;48.130;-2.040;2023-12-22T07:57:56;20.10;53.50
61398;DHT22;47267;48.130;-2.040;2023-12-22T08:00:22;20.10;53.50
61398;DHT22;47267;48.130;-2.040;2023-12-22T08:02:47;20.10;53.50
61398;DHT22;47267;48.130;-2.040;2023-12-22T08:05:13;20.20;53.50
61398;DHT22;47267;48.130;-2.040;2023-12-22T08:07:39;20.20;53.60
61398;DHT22;47267;48.130;-2.040;2023-12-22T08:10:05;20.20;53.60
61398;DHT22;47267;48.130;-2.040;2023-12-22T08:12:31;20.20;53.60
61398;DHT22;47267;48.130;-2.040;2023-12-22T08:14:58;20.20;53.60
61398;DHT22;47267;48.130;-2.040;2023-12-22T08:17:24;20.20;53.60
61398;DHT22;47267;48.130;-2.040;2023-12-22T08:19:50;20.30;53.70
61398;DHT22;47267;48.130;-2.040;2023-12-22T08:22:16;20.20;53.60
61398;DHT22;47267;48.130;-2.040;2023-12-22T08:24:41;20.30;53.70
61398;DHT22;47267;48.130;-2.040;2023-12-22T08:27:07;20.30;53.70
61398;DHT22;47267;48.130;-2.040;2023-12-22T08:29:33;20.30;53.70
61398;DHT22;47267;48.130;-2.040;2023-12-22T08:31:59;20.30;53.70
61398;DHT22;47267;48.130;-2.040;2023-12-22T08:34:26;20.30;53.80
61398;DHT22;47267;48.130;-2.040;2023-12-22T08:36:51;20.40;53.90
61398;DHT22;47267;48.130;-2.040;2023-12-22T08:39:17;20.40;53.90
61398;DHT22;47267;48.130;-2.040;2023-12-22T08:41:43;20.40;53.80
61398;DHT22;47267;48.130;-2.040;2023-12-22T08:44:09;20.40;53.80
61398;DHT22;47267;48.130;-2.040;2023-12-22T08:46:35;20.40;53.80
61398;DHT22;47267;48.130;-2.040;2023-12-22T08:49:02;20.40;53.90
61398;DHT22;47267;48.130;-2.040;2023-12-22T08:51:28;20.50;53.90
61398;DHT22;47267;48.130;-2.040;2023-12-22T08:53:54;20.50;53.90
61398;DHT22;47267;48.130;-2.040;2023-12-22T08:56:24;20.50;53.90
61398;DHT22;47267;48.130;-2.040;2023-12-22T08:58:52;20.50;54.00
61398;DHT22;47267;48.130;-2.040;2023-12-22T09:01:18;20.50;54.00
61398;DHT22;47267;48.130;-2.040;2023-12-22T09:03:44;20.50;53.90
61398;DHT22;47267;48.130;-2.040;2023-12-22T09:06:15;20.50;54.50
61398;DHT22;47267;48.130;-2.040;2023-12-22T09:08:42;20.50;53.90
61398;DHT22;47267;48.130;-2.040;2023-12-22T09:11:08;20.50;53.90
61398;DHT22;47267;48.130;-2.040;2023-12-22T09:13:34;20.60;53.90
61398;DHT22;47267;48.130;-2.040;2023-12-22T09:16:04;20.60;53.90
61398;DHT22;47267;48.130;-2.040;2023-12-22T09:18:31;20.60;53.90
61398;DHT22;47267;48.130;-2.040;2023-12-22T09:20:57;20.60;53.90
61398;DHT22;47267;48.130;-2.040;2023-12-22T09:23:23;20.60;53.80
61398;DHT22;47267;48.130;-2.040;2023-12-22T09:25:49;20.60;53.80
61398;DHT22;47267;48.130;-2.040;2023-12-22T09:28:15;20.60;53.90
61398;DHT22;47267;48.130;-2.040;2023-12-22T09:30:41;20.60;53.80
61398;DHT22;47267;48.130;-2.040;2023-12-22T09:33:11;20.60;53.90
61398;DHT22;47267;48.130;-2.040;2023-12-22T09:35:37;20.60;53.80
61398;DHT22;47267;48.130;-2.040;2023-12-22T09:38:07;20.70;53.90
61398;DHT22;47267;48.130;-2.040;2023-12-22T09:40:34;20.60;53.90
61398;DHT22;47267;48.130;-2.040;2023-12-22T09:43:02;20.70;53.90
61398;DHT22;47267;48.130;-2.040;2023-12-22T09:45:30;20.70;53.90
61398;DHT22;47267;48.130;-2.040;2023-12-22T09:47:56;20.70;53.90
61398;DHT22;47267;48.130;-2.040;2023-12-22T09:50:23;20.70;53.90
61398;DHT22;47267;48.130;-2.040;2023-12-22T09:52:50;20.70;53.90
61398;DHT22;47267;48.130;-2.040;2023-12-22T09:55:16;20.70;53.90
61398;DHT22;47267;48.130;-2.040;2023-12-22T09:57:43;20.70;53.80
61398;DHT22;47267;48.130;-2.040;2023-12-22T10:00:11;20.70;53.90
61398;DHT22;47267;48.130;-2.040;2023-12-22T10:02:39;20.70;53.80
61398;DHT22;47267;48.130;-2.040;2023-12-22T10:05:05;20.70;53.80
61398;DHT22;47267;48.130;-2.040;2023-12-22T10:07:31;20.70;53.80
61398;DHT22;47267;48.130;-2.040;2023-12-22T10:09:59;20.70;53.80
61398;DHT22;47267;48.130;-2.040;2023-12-22T10:12:27;20.70;53.80
61398;DHT22;47267;48.130;-2.040;2023-12-22T10:14:56;20.70;53.90
61398;DHT22;47267;48.130;-2.040;2023-12-22T10:17:22;20.70;53.80
61398;DHT22;47267;48.130;-2.040;2023-12-22T10:19:48;20.70;53.90
61398;DHT22;47267;48.130;-2.040;2023-12-22T10:22:14;20.70;53.80
61398;DHT22;47267;48.130;-2.040;2023-12-22T10:24:44;20.70;53.80
61398;DHT22;47267;48.130;-2.040;2023-12-22T10:27:14;20.70;53.80
61398;DHT22;47267;48.130;-2.040;2023-12-22T10:29:40;20.70;53.80
61398;DHT22;47267;48.130;-2.040;2023-12-22T10:32:06;20.80;53.80
61398;DHT22;47267;48.130;-2.040;2023-12-22T10:34:33;20.70;53.80
61398;DHT22;47267;48.130;-2.040;2023-12-22T10:36:59;20.80;53.90
61398;DHT22;47267;48.130;-2.040;2023-12-22T10:39:30;20.80;53.80
61398;DHT22;47267;48.130;-2.040;2023-12-22T10:41:59;20.80;53.90
61398;DHT22;47267;48.130;-2.040;2023-12-22T10:44:29;20.80;53.80
61398;DHT22;47267;48.130;-2.040;2023-12-22T10:46:56;20.80;53.80
61398;DHT22;47267;48.130;-2.040;2023-12-22T10:49:23;20.80;53.80
61398;DHT22;47267;48.130;-2.040;2023-12-22T10:51:49;20.80;53.80
61398;DHT22;47267;48.130;-2.040;2023-12-22T10:54:16;20.80;53.80
61398;DHT22;47267;48.130;-2.040;2023-12-22T10:56:42;20.80;53.80
61398;DHT22;47267;48.130;-2.040;2023-12-22T10:59:09;20.80;53.80
61398;DHT22;47267;48.130;-2.040;2023-12-22T11:01:38;20.80;53.80
61398;DHT22;47267;48.130;-2.040;2023-12-22T11:04:09;20.80;53.80
61398;DHT22;47267;48.130;-2.040;2023-12-22T11:06:41;20.80;53.80
61398;DHT22;47267;48.130;-2.040;2023-12-22T11:09:09;20.80;53.80
61398;DHT22;47267;48.130;-2.040;2023-12-22T11:11:40;20.70;53.70
61398;DHT22;47267;48.130;-2.040;2023-12-22T11:14:07;20.80;53.80
61398;DHT22;47267;48.130;-2.040;2023-12-22T11:16:36;20.70;53.70
61398;DHT22;47267;48.130;-2.040;2023-12-22T11:19:03;20.70;53.70
61398;DHT22;47267;48.130;-2.040;2023-12-22T11:21:31;20.70;53.70
61398;DHT22;47267;48.130;-2.040;2023-12-22T11:23:58;20.80;53.80
61398;DHT22;47267;48.130;-2.040;2023-12-22T11:26:26;20.70;53.80
61398;DHT22;47267;48.130;-2.040;2023-12-22T11:28:53;20.70;53.70
61398;DHT22;47267;48.130;-2.040;2023-12-22T11:31:19;20.70;53.70
61398;DHT22;47267;48.130;-2.040;2023-12-22T11:33:48;20.70;53.70
61398;DHT22;47267;48.130;-2.040;2023-12-22T11:36:18;20.70;53.70
61398;DHT22;47267;48.130;-2.040;2023-12-22T11:38:46;20.70;53.70
61398;DHT22;47267;48.130;-2.040;2023-12-22T11:41:19;20.70;53.70
61398;DHT22;47267;48.130;-2.040;2023-12-22T11:43:49;20.70;53.70
61398;DHT22;47267;48.130;-2.040;2023-12-22T11:46:18;20.70;53.70
61398;DHT22;47267;48.130;-2.040;2023-12-22T11:48:48;20.70;53.70
61398;DHT22;47267;48.130;-2.040;2023-12-22T11:51:15;20.70;53.70
61398;DHT22;47267;48.130;-2.040;2023-12-22T11:53:46;20.70;53.70
61398;DHT22;47267;48.130;-2.040;2023-12-22T11:56:12;20.70;53.70
61398;DHT22;47267;48.130;-2.040;2023-12-22T11:58:48;20.70;53.70
61398;DHT22;47267;48.130;-2.040;2023-12-22T12:01:19;20.70;53.70
61398;DHT22;47267;48.130;-2.040;2023-12-22T12:03:53;20.70;53.70
61398;DHT22;47267;48.130;-2.040;2023-12-22T12:09:06;20.60;53.60
61398;DHT22;47267;48.130;-2.040;2023-12-22T12:14:22;20.60;53.60
61398;DHT22;47267;48.130;-2.040;2023-12-22T12:16:48;20.60;53.60
61398;DHT22;47267;48.130;-2.040;2023-12-22T12:19:14;20.60;53.60
61398;DHT22;47267;48.130;-2.040;2023-12-22T12:21:40;20.60;53.60
61398;DHT22;47267;48.130;-2.040;2023-12-22T12:24:06;20.60;53.60
61398;DHT22;47267;48.130;-2.040;2023-12-22T12:26:35;20.60;53.60
61398;DHT22;47267;48.130;-2.040;2023-12-22T12:29:01;20.60;53.60
61398;DHT22;47267;48.130;-2.040;2023-12-22T12:31:38;20.60;53.60
61398;DHT22;47267;48.130;-2.040;2023-12-22T12:34:05;20.60;53.70
61398;DHT22;47267;48.130;-2.040;2023-12-22T12:36:31;20.60;53.70
61398;DHT22;47267;48.130;-2.040;2023-12-22T12:39:07;20.60;53.70
61398;DHT22;47267;48.130;-2.040;2023-12-22T12:41:40;20.60;53.60
61398;DHT22;47267;48.130;-2.040;2023-12-22T12:44:07;20.60;53.70
61398;DHT22;47267;48.130;-2.040;2023-12-22T12:46:38;20.60;53.60
61398;DHT22;47267;48.130;-2.040;2023-12-22T12:49:07;20.60;53.70
61398;DHT22;47267;48.130;-2.040;2023-12-22T12:51:56;20.60;53.60
61398;DHT22;47267;48.130;-2.040;2023-12-22T12:54:22;20.50;53.60
61398;DHT22;47267;48.130;-2.040;2023-12-22T12:56:48;20.50;53.60
61398;DHT22;47267;48.130;-2.040;2023-12-22T12:59:17;20.60;53.70
61398;DHT22;47267;48.130;-2.040;2023-12-22T13:01:47;20.50;53.60
61398;DHT22;47267;48.130;-2.040;2023-12-22T13:04:13;20.50;53.60
61398;DHT22;47267;48.130;-2.040;2023-12-22T13:06:49;20.50;53.60
61398;DHT22;47267;48.130;-2.040;2023-12-22T13:09:15;20.50;53.60
61398;DHT22;47267;48.130;-2.040;2023-12-22T13:11:42;20.50;53.60
61398;DHT22;47267;48.130;-2.040;2023-12-22T13:14:09;20.50;53.60
61398;DHT22;47267;48.130;-2.040;2023-12-22T13:16:35;20.50;53.60
61398;DHT22;47267;48.130;-2.040;2023-12-22T13:19:02;20.50;53.60
61398;DHT22;47267;48.130;-2.040;2023-12-22T13:21:28;20.50;53.70
61398;DHT22;47267;48.130;-2.040;2023-12-22T13:24:16;20.50;53.70
61398;DHT22;47267;48.130;-2.040;2023-12-22T13:26:43;20.40;53.60
61398;DHT22;47267;48.130;-2.040;2023-12-22T13:29:10;20.40;53.60
61398;DHT22;47267;48.130;-2.040;2023-12-22T13:31:40;20.40;53.60
61398;DHT22;47267;48.130;-2.040;2023-12-22T13:34:12;20.50;53.60
61398;DHT22;47267;48.130;-2.040;2023-12-22T13:36:39;20.40;53.60
61398;DHT22;47267;48.130;-2.040;2023-12-22T13:39:06;20.40;53.60
61398;DHT22;47267;48.130;-2.040;2023-12-22T13:41:33;20.40;53.60
61398;DHT22;47267;48.130;-2.040;2023-12-22T13:44:03;20.40;53.60
61398;DHT22;47267;48.130;-2.040;2023-12-22T13:46:29;20.50;53.70
61398;DHT22;47267;48.130;-2.040;2023-12-22T13:48:55;20.40;53.60
61398;DHT22;47267;48.130;-2.040;2023-12-22T13:51:21;20.40;53.60
61398;DHT22;47267;48.130;-2.040;2023-12-22T13:53:47;20.40;53.60
61398;DHT22;47267;48.130;-2.040;2023-12-22T13:56:13;20.40;53.60
61398;DHT22;47267;48.130;-2.040;2023-12-22T13:58:46;20.40;53.60
61398;DHT22;47267;48.130;-2.040;2023-12-22T14:01:16;20.40;53.60
61398;DHT22;47267;48.130;-2.040;2023-12-22T14:03:45;20.40;53.60
61398;DHT22;47267;48.130;-2.040;2023-12-22T14:06:11;20.40;53.60
61398;DHT22;47267;48.130;-2.040;2023-12-22T14:08:39;20.40;53.60
61398;DHT22;47267;48.130;-2.040;2023-12-22T14:11:06;20.40;53.70
61398;DHT22;47267;48.130;-2.040;2023-12-22T14:13:32;20.40;53.70
61398;DHT22;47267;48.130;-2.040;2023-12-22T14:15:57;20.40;53.70
61398;DHT22;47267;48.130;-2.040;2023-12-22T14:18:23;20.40;53.70
61398;DHT22;47267;48.130;-2.040;2023-12-22T14:20:48;20.40;53.70
61398;DHT22;47267;48.130;-2.040;2023-12-22T14:23:14;20.40;53.70
61398;DHT22;47267;48.130;-2.040;2023-12-22T14:25:45;20.30;53.60
61398;DHT22;47267;48.130;-2.040;2023-12-22T14:28:11;20.40;53.70
61398;DHT22;47267;48.130;-2.040;2023-12-22T14:30:37;20.30;53.60
61398;DHT22;47267;48.130;-2.040;2023-12-22T14:33:02;20.30;53.60
61398;DHT22;47267;48.130;-2.040;2023-12-22T14:35:28;20.30;53.60
61398;DHT22;47267;48.130;-2.040;2023-12-22T14:37:54;20.40;54.30
61398;DHT22;47267;48.130;-2.040;2023-12-22T14:40:19;20.30;53.70
61398;DHT22;47267;48.130;-2.040;2023-12-22T14:42:45;20.30;53.70
61398;DHT22;47267;48.130;-2.040;2023-12-22T14:45:10;20.30;53.70
61398;DHT22;47267;48.130;-2.040;2023-12-22T14:47:36;20.30;53.70
61398;DHT22;47267;48.130;-2.040;2023-12-22T14:50:02;20.30;53.70
61398;DHT22;47267;48.130;-2.040;2023-12-22T14:52:31;20.30;53.70
61398;DHT22;47267;48.130;-2.040;2023-12-22T14:54:58;20.30;53.70
61398;DHT22;47267;48.130;-2.040;2023-12-22T14:57:25;20.30;53.70
61398;DHT22;47267;48.130;-2.040;2023-12-22T14:59:52;20.30;53.70
61398;DHT22;47267;48.130;-2.040;2023-12-22T15:02:17;20.30;53.70
61398;DHT22;47267;48.130;-2.040;2023-12-22T15:04:44;20.30;53.70
61398;DHT22;47267;48.130;-2.040;2023-12-22T15:07:13;20.30;53.70
61398;DHT22;47267;48.130;-2.040;2023-12-22T15:09:39;20.30;53.70
61398;DHT22;47267;48.130;-2.040;2023-12-22T15:12:06;20.30;53.70
61398;DHT22;47267;48.130;-2.040;2023-12-22T15:14:32;20.30;53.70
61398;DHT22;47267;48.130;-2.040;2023-12-22T15:16:57;20.20;53.70
61398;DHT22;47267;48.130;-2.040;2023-12-22T15:19:23;20.30;53.70
61398;DHT22;47267;48.130;-2.040;2023-12-22T15:21:49;20.30;53.70
61398;DHT22;47267;48.130;-2.040;2023-12-22T15:24:14;20.30;53.70
61398;DHT22;47267;48.130;-2.040;2023-12-22T15:26:40;20.30;53.70
61398;DHT22;47267;48.130;-2.040;2023-12-22T15:29:06;20.20;53.60